createdAt,value
2023-02-27T00:00:12.311Z,1007.1
2023-02-27T00:01:29.298Z,1007.1
2023-02-27T00:02:46.325Z,1007.1
2023-02-27T00:04:03.320Z,1007.1
2023-02-27T00:05:20.279Z,1007.1
2023-02-27T00:06:37.254Z,1007.1
2023-02-27T00:07:54.288Z,1007.1
2023-02-27T00:09:11.314Z,1007.1
2023-02-27T00:10:28.268Z,1007.1
2023-02-27T00:11:45.273Z,1007.1
2023-02-27T00:13:02.276Z,1007.1
2023-02-27T00:14:19.333Z,1007.1
2023-02-27T00:15:36.409Z,1007.2
2023-02-27T00:16:53.280Z,1007.2
2023-02-27T00:18:10.318Z,1007.2
2023-02-27T00:19:27.357Z,1007.2
2023-02-27T00:20:44.322Z,1007.2
2023-02-27T00:22:01.274Z,1007.2
2023-02-27T00:23:18.281Z,1007.2
2023-02-27T00:24:35.314Z,1007.1
2023-02-27T00:25:52.364Z,1007.1
2023-02-27T00:27:09.280Z,1007.1
2023-02-27T00:28:26.302Z,1007.2
2023-02-27T00:29:43.323Z,1007.1
2023-02-27T00:31:00.562Z,1007.1
2023-02-27T00:32:17.325Z,1007.1
2023-02-27T00:33:34.324Z,1007.1
2023-02-27T00:34:51.289Z,1007.1
2023-02-27T00:36:08.361Z,1007.1
2023-02-27T00:37:25.300Z,1007.1
2023-02-27T00:38:42.301Z,1007.1
2023-02-27T00:39:59.313Z,1007.1
2023-02-27T00:41:16.481Z,1007.2
2023-02-27T00:42:33.336Z,1007.2
2023-02-27T00:43:50.335Z,1007.2
2023-02-27T00:45:07.384Z,1007.2
2023-02-27T00:46:24.366Z,1007.2
2023-02-27T00:47:41.303Z,1007.2
2023-02-27T00:48:58.302Z,1007.2
2023-02-27T00:50:15.337Z,1007.2
2023-02-27T00:51:32.316Z,1007.2
2023-02-27T00:52:49.340Z,1007.1
2023-02-27T00:54:06.339Z,1007.1
2023-02-27T00:55:23.485Z,1007.1
2023-02-27T00:56:40.372Z,1007.1
2023-02-27T00:57:57.322Z,1007.1
2023-02-27T00:59:14.367Z,1007.1
2023-02-27T01:00:31.366Z,1007.1
2023-02-27T01:01:48.381Z,1007.1
2023-02-27T01:03:05.343Z,1007.1
2023-02-27T01:04:22.334Z,1007.1
2023-02-27T01:05:39.462Z,1007
2023-02-27T01:06:56.336Z,1007.1
2023-02-27T01:08:13.341Z,1007
2023-02-27T01:09:30.326Z,1007
2023-02-27T01:10:47.367Z,1007
2023-02-27T01:12:04.346Z,1007
2023-02-27T01:13:21.348Z,1007
2023-02-27T01:14:38.375Z,1007.1
2023-02-27T01:15:55.383Z,1007
2023-02-27T01:17:12.409Z,1007.1
2023-02-27T01:18:29.349Z,1007
2023-02-27T01:19:46.372Z,1007
2023-02-27T01:21:03.377Z,1007
2023-02-27T01:22:20.358Z,1007
2023-02-27T01:23:37.382Z,1007
2023-02-27T01:24:54.387Z,1007.1
2023-02-27T01:26:11.384Z,1007.1
2023-02-27T01:27:28.374Z,1007.1
2023-02-27T01:28:45.360Z,1007.1
2023-02-27T01:30:02.384Z,1007.1
2023-02-27T01:31:19.467Z,1007.1
2023-02-27T01:32:36.439Z,1007.1
2023-02-27T01:33:53.388Z,1007
2023-02-27T01:35:10.375Z,1007
2023-02-27T01:36:27.417Z,1007
2023-02-27T01:37:44.375Z,1007
2023-02-27T01:39:01.399Z,1007
2023-02-27T01:40:18.430Z,1007.1
2023-02-27T01:41:35.444Z,1007.1
2023-02-27T01:42:52.390Z,1007.1
2023-02-27T01:44:09.374Z,1007.1
2023-02-27T01:45:26.395Z,1007.1
2023-02-27T01:46:43.415Z,1007.1
2023-02-27T01:48:00.397Z,1007.1
2023-02-27T01:49:17.438Z,1007.1
2023-02-27T01:50:34.399Z,1007.1
2023-02-27T01:51:51.382Z,1007
2023-02-27T01:53:08.396Z,1007.1
2023-02-27T01:54:25.438Z,1007.1
2023-02-27T01:55:42.397Z,1007.1
2023-02-27T01:56:59.427Z,1007.1
2023-02-27T01:58:16.422Z,1007.1
2023-02-27T01:59:33.397Z,1007.1
2023-02-27T02:00:50.513Z,1007.2
2023-02-27T02:02:07.451Z,1007.2
2023-02-27T02:03:24.442Z,1007.2
2023-02-27T02:04:41.414Z,1007.2
2023-02-27T02:05:58.454Z,1007.2
2023-02-27T02:07:15.489Z,1007.2
2023-02-27T02:08:32.427Z,1007.2
2023-02-27T02:09:49.413Z,1007.3
2023-02-27T02:11:06.415Z,1007.3
2023-02-27T02:12:23.446Z,1007.2
2023-02-27T02:13:40.421Z,1007.2
2023-02-27T02:14:57.416Z,1007.1
2023-02-27T02:16:14.444Z,1007.2
2023-02-27T02:17:31.458Z,1007.2
2023-02-27T02:18:48.436Z,1007.2
2023-02-27T02:20:05.531Z,1007.2
2023-02-27T02:21:22.438Z,1007.2
2023-02-27T02:22:39.491Z,1007.2
2023-02-27T02:23:56.426Z,1007.2
2023-02-27T02:25:13.444Z,1007.2
2023-02-27T02:26:33.120Z,1007.2
2023-02-27T02:27:47.505Z,1007.2
2023-02-27T02:29:04.432Z,1007.2
2023-02-27T02:30:21.482Z,1007.2
2023-02-27T02:31:38.523Z,1007.2
2023-02-27T02:32:55.489Z,1007.2
2023-02-27T02:34:12.529Z,1007.2
2023-02-27T02:35:29.460Z,1007.2
2023-02-27T02:36:46.451Z,1007.3
2023-02-27T02:38:03.449Z,1007.3
2023-02-27T02:39:20.486Z,1007.3
2023-02-27T02:40:37.447Z,1007.4
2023-02-27T02:41:54.474Z,1007.3
2023-02-27T02:43:11.472Z,1007.3
2023-02-27T02:44:28.451Z,1007.4
2023-02-27T02:45:45.540Z,1007.4
2023-02-27T02:47:02.485Z,1007.4
2023-02-27T02:48:19.488Z,1007.4
2023-02-27T02:49:36.519Z,1007.5
2023-02-27T02:50:53.507Z,1007.5
2023-02-27T02:52:10.459Z,1007.5
2023-02-27T02:53:36.021Z,1007.4
2023-02-27T02:54:44.529Z,1007.5
2023-02-27T02:56:01.492Z,1007.5
2023-02-27T02:57:18.502Z,1007.5
2023-02-27T02:58:35.463Z,1007.5
2023-02-27T02:59:52.526Z,1007.5
2023-02-27T03:01:09.527Z,1007.5
2023-02-27T03:02:26.483Z,1007.6
2023-02-27T03:03:43.474Z,1007.6
2023-02-27T03:05:00.651Z,1007.6
2023-02-27T03:06:17.552Z,1007.6
2023-02-27T03:07:34.566Z,1007.6
2023-02-27T03:08:51.481Z,1007.6
2023-02-27T03:10:08.494Z,1007.7
2023-02-27T03:11:25.875Z,1007.7
2023-02-27T03:12:42.570Z,1007.7
2023-02-27T03:13:59.510Z,1007.6
2023-02-27T03:15:16.516Z,1007.7
2023-02-27T03:16:33.537Z,1007.7
2023-02-27T03:17:50.505Z,1007.7
2023-02-27T03:19:07.492Z,1007.7
2023-02-27T03:20:24.524Z,1007.7
2023-02-27T03:21:41.527Z,1007.7
2023-02-27T03:22:58.521Z,1007.8
2023-02-27T03:24:15.500Z,1007.8
2023-02-27T03:25:32.528Z,1007.8
2023-02-27T03:26:49.665Z,1007.8
2023-02-27T03:28:06.611Z,1007.7
2023-02-27T03:29:23.540Z,1007.7
2023-02-27T03:30:40.745Z,1007.8
2023-02-27T03:31:57.591Z,1007.8
2023-02-27T03:33:14.554Z,1007.8
2023-02-27T03:34:31.518Z,1007.8
2023-02-27T03:35:48.562Z,1007.8
2023-02-27T03:37:05.517Z,1007.8
2023-02-27T03:38:22.576Z,1007.8
2023-02-27T03:39:39.608Z,1007.8
2023-02-27T03:40:56.545Z,1007.9
2023-02-27T03:42:13.570Z,1007.8
2023-02-27T03:43:30.605Z,1007.8
2023-02-27T03:44:47.552Z,1007.8
2023-02-27T03:46:04.591Z,1007.8
2023-02-27T03:47:21.593Z,1007.8
2023-02-27T03:48:38.615Z,1007.9
2023-02-27T03:49:55.528Z,1007.9
2023-02-27T03:51:12.589Z,1007.9
2023-02-27T03:52:29.531Z,1007.9
2023-02-27T03:53:46.582Z,1007.9
2023-02-27T03:55:03.581Z,1007.9
2023-02-27T03:56:20.555Z,1007.7
2023-02-27T03:57:37.557Z,1007.8
2023-02-27T03:58:54.539Z,1007.9
2023-02-27T04:00:11.554Z,1007.9
2023-02-27T04:01:28.969Z,1008
2023-02-27T04:02:45.571Z,1008
2023-02-27T04:04:02.558Z,1008
2023-02-27T04:05:19.562Z,1008.1
2023-02-27T04:06:36.592Z,1008.1
2023-02-27T04:07:53.569Z,1008.1
2023-02-27T04:09:10.538Z,1008.1
2023-02-27T04:10:27.566Z,1008.1
2023-02-27T04:11:44.550Z,1008.1
2023-02-27T04:13:02.279Z,1008.1
2023-02-27T04:14:19.569Z,1008.1
2023-02-27T04:15:36.554Z,1008.2
2023-02-27T04:16:53.574Z,1008.2
2023-02-27T04:18:10.640Z,1008.2
2023-02-27T04:19:27.581Z,1008.2
2023-02-27T04:20:44.586Z,1008.2
2023-02-27T04:22:01.601Z,1008.2
2023-02-27T04:23:18.598Z,1008.2
2023-02-27T04:24:35.620Z,1008.2
2023-02-27T04:25:52.576Z,1008.2
2023-02-27T04:27:09.579Z,1008.2
2023-02-27T04:28:26.601Z,1008.2
2023-02-27T04:29:43.601Z,1008.2
2023-02-27T04:31:00.768Z,1008.2
2023-02-27T04:32:17.726Z,1008.3
2023-02-27T04:33:34.628Z,1008.2
2023-02-27T04:34:51.618Z,1008.2
2023-02-27T04:36:08.594Z,1008.3
2023-02-27T04:37:25.621Z,1008.2
2023-02-27T04:38:42.613Z,1008.2
2023-02-27T04:39:59.619Z,1008.2
2023-02-27T04:41:16.640Z,1008.2
2023-02-27T04:42:33.619Z,1008.2
2023-02-27T04:43:50.676Z,1008.2
2023-02-27T04:45:07.644Z,1008.1
2023-02-27T04:46:24.620Z,1008.2
2023-02-27T04:47:41.612Z,1008.2
2023-02-27T04:48:58.674Z,1008.2
2023-02-27T04:50:15.635Z,1008.2
2023-02-27T04:51:32.610Z,1008.2
2023-02-27T04:52:49.669Z,1008.2
2023-02-27T04:54:06.613Z,1008.2
2023-02-27T04:55:23.617Z,1008.2
2023-02-27T04:56:40.616Z,1008.2
2023-02-27T04:57:57.653Z,1008.2
2023-02-27T04:59:14.651Z,1008.3
2023-02-27T05:00:31.629Z,1008.3
2023-02-27T05:01:48.728Z,1008.3
2023-02-27T05:03:05.634Z,1008.3
2023-02-27T05:04:22.666Z,1008.3
2023-02-27T05:05:39.637Z,1008.3
2023-02-27T05:06:56.631Z,1008.4
2023-02-27T05:08:13.658Z,1008.4
2023-02-27T05:09:30.652Z,1008.4
2023-02-27T05:10:47.647Z,1008.3
2023-02-27T05:12:04.670Z,1008.4
2023-02-27T05:13:21.658Z,1008.4
2023-02-27T05:14:38.670Z,1008.4
2023-02-27T05:15:55.703Z,1008.4
2023-02-27T05:17:12.661Z,1008.4
2023-02-27T05:18:29.649Z,1008.4
2023-02-27T05:19:46.740Z,1008.4
2023-02-27T05:21:03.667Z,1008.5
2023-02-27T05:22:20.658Z,1008.4
2023-02-27T05:23:37.705Z,1008.4
2023-02-27T05:24:54.700Z,1008.5
2023-02-27T05:26:11.661Z,1008.5
2023-02-27T05:27:28.658Z,1008.5
2023-02-27T05:28:45.653Z,1008.6
2023-02-27T05:30:02.804Z,1008.6
2023-02-27T05:31:19.703Z,1008.6
2023-02-27T05:32:36.745Z,1008.6
2023-02-27T05:33:53.663Z,1008.6
2023-02-27T05:35:10.704Z,1008.6
2023-02-27T05:36:27.683Z,1008.6
2023-02-27T05:37:44.686Z,1008.6
2023-02-27T05:39:01.797Z,1008.6
2023-02-27T05:40:18.745Z,1008.6
2023-02-27T05:41:35.671Z,1008.6
2023-02-27T05:42:52.678Z,1008.6
2023-02-27T05:44:09.686Z,1008.6
2023-02-27T05:45:26.717Z,1008.6
2023-02-27T05:46:43.696Z,1008.6
2023-02-27T05:48:00.694Z,1008.6
2023-02-27T05:49:17.686Z,1008.7
2023-02-27T05:50:34.727Z,1008.7
2023-02-27T05:51:52.073Z,1008.7
2023-02-27T05:53:09.708Z,1008.7
2023-02-27T05:54:26.728Z,1008.7
2023-02-27T05:55:43.747Z,1008.7
2023-02-27T05:57:00.725Z,1008.7
2023-02-27T05:58:17.734Z,1008.7
2023-02-27T05:59:34.688Z,1008.7
2023-02-27T06:00:51.704Z,1008.8
2023-02-27T06:02:08.753Z,1008.8
2023-02-27T06:03:25.806Z,1008.8
2023-02-27T06:04:42.716Z,1008.8
2023-02-27T06:05:59.697Z,1008.8
2023-02-27T06:07:16.697Z,1008.8
2023-02-27T06:08:33.806Z,1008.8
2023-02-27T06:09:50.723Z,1008.8
2023-02-27T06:11:07.736Z,1008.8
2023-02-27T06:12:24.714Z,1008.8
2023-02-27T06:13:42.252Z,1008.8
2023-02-27T06:14:58.722Z,1008.8
2023-02-27T06:16:15.843Z,1008.8
2023-02-27T06:17:32.766Z,1008.8
2023-02-27T06:18:49.774Z,1008.8
2023-02-27T06:20:06.749Z,1008.8
2023-02-27T06:21:23.760Z,1008.8
2023-02-27T06:22:40.805Z,1008.8
2023-02-27T06:23:57.742Z,1008.8
2023-02-27T06:25:14.838Z,1008.8
2023-02-27T06:26:31.854Z,1008.8
2023-02-27T06:27:48.760Z,1008.8
2023-02-27T06:29:05.747Z,1008.8
2023-02-27T06:30:22.762Z,1008.9
2023-02-27T06:31:39.803Z,1008.9
2023-02-27T06:32:56.756Z,1008.9
2023-02-27T06:34:13.847Z,1008.9
2023-02-27T06:35:30.750Z,1008.8
2023-02-27T06:36:47.794Z,1008.8
2023-02-27T06:38:04.765Z,1008.8
2023-02-27T06:39:21.742Z,1008.8
2023-02-27T06:40:38.847Z,1008.8
2023-02-27T06:41:55.750Z,1008.8
2023-02-27T06:43:12.787Z,1008.9
2023-02-27T06:44:29.758Z,1008.9
2023-02-27T06:45:46.773Z,1009
2023-02-27T06:47:03.792Z,1009
2023-02-27T06:48:20.772Z,1009
2023-02-27T06:49:38.130Z,1009
2023-02-27T06:50:54.861Z,1009
2023-02-27T06:52:11.989Z,1009
2023-02-27T06:53:28.768Z,1009
2023-02-27T06:54:45.865Z,1009
2023-02-27T06:56:02.791Z,1009
2023-02-27T06:57:19.810Z,1009
2023-02-27T06:58:36.779Z,1009
2023-02-27T06:59:53.781Z,1009
2023-02-27T07:01:10.801Z,1009.1
2023-02-27T07:02:27.838Z,1009.1
2023-02-27T07:03:44.789Z,1009.2
2023-02-27T07:05:03.149Z,1009.2
2023-02-27T07:06:18.778Z,1009.2
2023-02-27T07:07:37.661Z,1009.2
2023-02-27T07:08:54.490Z,1009.2
2023-02-27T07:10:09.789Z,1009.2
2023-02-27T07:11:26.812Z,1009.2
2023-02-27T07:12:43.808Z,1009.2
2023-02-27T07:14:00.796Z,1009.2
2023-02-27T07:15:17.791Z,1009.2
2023-02-27T07:16:34.782Z,1009.2
2023-02-27T07:17:51.850Z,1009.3
2023-02-27T07:19:08.888Z,1009.3
2023-02-27T07:20:25.795Z,1009.3
2023-02-27T07:21:42.788Z,1009.3
2023-02-27T07:22:59.833Z,1009.3
2023-02-27T07:24:16.802Z,1009.3
2023-02-27T07:25:33.808Z,1009.4
2023-02-27T07:26:50.904Z,1009.3
2023-02-27T07:28:07.838Z,1009.3
2023-02-27T07:29:24.806Z,1009.4
2023-02-27T07:30:41.808Z,1009.4
2023-02-27T07:31:58.833Z,1009.4
2023-02-27T07:33:15.881Z,1009.4
2023-02-27T07:34:32.861Z,1009.4
2023-02-27T07:35:49.823Z,1009.4
2023-02-27T07:37:06.840Z,1009.3
2023-02-27T07:38:23.852Z,1009.4
2023-02-27T07:39:40.851Z,1009.4
2023-02-27T07:40:57.818Z,1009.4
2023-02-27T07:42:14.858Z,1009.4
2023-02-27T07:43:31.876Z,1009.4
2023-02-27T07:44:48.863Z,1009.5
2023-02-27T07:46:05.931Z,1009.5
2023-02-27T07:47:22.915Z,1009.5
2023-02-27T07:48:39.859Z,1009.5
2023-02-27T07:49:56.854Z,1009.5
2023-02-27T07:51:13.827Z,1009.4
2023-02-27T07:53:47.839Z,1009.5
2023-02-27T07:55:04.867Z,1009.5
2023-02-27T07:56:21.849Z,1009.5
2023-02-27T07:57:38.935Z,1009.5
2023-02-27T07:58:55.928Z,1009.4
2023-02-27T08:00:12.868Z,1009.5
2023-02-27T08:01:29.888Z,1009.5
2023-02-27T08:02:46.940Z,1009.5
2023-02-27T08:04:03.847Z,1009.5
2023-02-27T08:05:20.954Z,1009.5
2023-02-27T08:06:37.852Z,1009.5
2023-02-27T08:07:54.926Z,1009.5
2023-02-27T08:09:11.863Z,1009.5
2023-02-27T08:10:29.025Z,1009.5
2023-02-27T08:11:48.566Z,1009.5
2023-02-27T08:13:03.011Z,1009.5
2023-02-27T08:14:19.885Z,1009.5
2023-02-27T08:15:36.954Z,1009.6
2023-02-27T08:16:53.928Z,1009.5
2023-02-27T08:18:11.110Z,1009.5
2023-02-27T08:19:27.919Z,1009.5
2023-02-27T08:20:44.879Z,1009.5
2023-02-27T08:22:01.912Z,1009.5
2023-02-27T08:23:18.922Z,1009.5
2023-02-27T08:24:36.057Z,1009.6
2023-02-27T08:25:52.867Z,1009.6
2023-02-27T08:27:09.899Z,1009.6
2023-02-27T08:28:27.077Z,1009.6
2023-02-27T08:29:43.962Z,1009.6
2023-02-27T08:31:00.898Z,1009.6
2023-02-27T08:32:17.989Z,1009.6
2023-02-27T08:33:34.958Z,1009.7
2023-02-27T08:34:51.929Z,1009.7
2023-02-27T08:36:08.941Z,1009.7
2023-02-27T08:37:25.929Z,1009.6
2023-02-27T08:38:42.885Z,1009.7
2023-02-27T08:39:59.948Z,1009.7
2023-02-27T08:41:16.924Z,1009.7
2023-02-27T08:42:33.897Z,1009.8
2023-02-27T08:43:50.914Z,1009.8
2023-02-27T08:45:08.071Z,1009.7
2023-02-27T08:46:25.227Z,1009.7
2023-02-27T08:47:41.968Z,1009.7
2023-02-27T08:48:59.037Z,1009.7
2023-02-27T08:50:16.106Z,1009.7
2023-02-27T08:51:33.080Z,1009.8
2023-02-27T08:52:49.908Z,1009.8
2023-02-27T08:54:06.914Z,1009.8
2023-02-27T08:55:23.976Z,1009.8
2023-02-27T08:56:40.947Z,1009.7
2023-02-27T08:57:57.974Z,1009.7
2023-02-27T08:59:15.029Z,1009.7
2023-02-27T09:00:32.005Z,1009.7
2023-02-27T09:01:48.917Z,1009.7
2023-02-27T09:03:05.981Z,1009.7
2023-02-27T09:04:22.956Z,1009.7
2023-02-27T09:05:39.963Z,1009.8
2023-02-27T09:06:56.939Z,1009.8
2023-02-27T09:08:13.955Z,1009.8
2023-02-27T09:09:30.950Z,1009.8
2023-02-27T09:10:47.936Z,1009.9
2023-02-27T09:12:04.931Z,1009.9
2023-02-27T09:13:21.969Z,1009.9
2023-02-27T09:14:38.963Z,1009.9
2023-02-27T09:15:55.936Z,1009.9
2023-02-27T09:17:12.955Z,1009.9
2023-02-27T09:18:29.999Z,1010
2023-02-27T09:19:46.980Z,1010
2023-02-27T09:21:04.037Z,1010
2023-02-27T09:22:20.957Z,1010.1
2023-02-27T09:23:38.070Z,1010.1
2023-02-27T09:24:55.014Z,1010
2023-02-27T09:26:11.971Z,1010
2023-02-27T09:27:28.972Z,1010
2023-02-27T09:28:45.989Z,1010
2023-02-27T09:30:03.004Z,1010
2023-02-27T09:31:20.028Z,1010
2023-02-27T09:32:37.024Z,1010
2023-02-27T09:33:54.008Z,1010
2023-02-27T09:35:10.990Z,1010
2023-02-27T09:36:28.387Z,1010.1
2023-02-27T09:37:44.995Z,1010
2023-02-27T09:39:02.000Z,1010
2023-02-27T09:40:19.000Z,1010.1
2023-02-27T09:41:35.983Z,1010.1
2023-02-27T09:42:53.027Z,1010.2
2023-02-27T09:44:10.007Z,1010.2
2023-02-27T09:45:27.107Z,1010.2
2023-02-27T09:46:43.974Z,1010.2
2023-02-27T09:48:00.976Z,1010.2
2023-02-27T09:49:18.009Z,1010.2
2023-02-27T09:50:34.987Z,1010.2
2023-02-27T09:51:53.411Z,1010.1
2023-02-27T09:53:08.989Z,1010.1
2023-02-27T09:54:26.020Z,1010.1
2023-02-27T09:55:42.990Z,1010
2023-02-27T09:56:59.997Z,1010.1
2023-02-27T09:58:16.993Z,1010.1
2023-02-27T09:59:34.024Z,1010.1
2023-02-27T10:00:51.029Z,1010.1
2023-02-27T10:02:08.078Z,1010.2
2023-02-27T10:03:25.043Z,1010.2
2023-02-27T10:04:42.003Z,1010.2
2023-02-27T10:05:59.038Z,1010.2
2023-02-27T10:07:16.027Z,1010.2
2023-02-27T10:08:33.027Z,1010.2
2023-02-27T10:09:50.036Z,1010.2
2023-02-27T10:11:06.991Z,1010.2
2023-02-27T10:12:24.604Z,1010.2
2023-02-27T10:13:42.025Z,1010.3
2023-02-27T10:14:59.027Z,1010.3
2023-02-27T10:16:16.572Z,1010.3
2023-02-27T10:17:33.018Z,1010.3
2023-02-27T10:18:50.021Z,1010.3
2023-02-27T10:20:07.202Z,1010.3
2023-02-27T10:21:24.051Z,1010.4
2023-02-27T10:22:41.013Z,1010.4
2023-02-27T10:23:58.037Z,1010.4
2023-02-27T10:25:28.684Z,1010.4
2023-02-27T10:26:32.064Z,1010.4
2023-02-27T10:27:49.029Z,1010.3
2023-02-27T10:29:06.033Z,1010.4
2023-02-27T10:30:29.138Z,1010.3
2023-02-27T10:31:40.120Z,1010.3
2023-02-27T10:32:57.055Z,1010.3
2023-02-27T10:34:14.073Z,1010.3
2023-02-27T10:35:31.105Z,1010.3
2023-02-27T10:36:48.583Z,1010.4
2023-02-27T10:38:05.047Z,1010.4
2023-02-27T10:39:22.095Z,1010.4
2023-02-27T10:40:39.057Z,1010.3
2023-02-27T10:41:56.073Z,1010.4
2023-02-27T10:43:13.053Z,1010.4
2023-02-27T10:44:30.100Z,1010.4
2023-02-27T10:45:47.060Z,1010.4
2023-02-27T10:47:04.123Z,1010.4
2023-02-27T10:48:21.057Z,1010.4
2023-02-27T10:49:38.056Z,1010.4
2023-02-27T10:50:55.078Z,1010.4
2023-02-27T10:52:12.070Z,1010.4
2023-02-27T10:53:29.070Z,1010.4
2023-02-27T10:54:46.133Z,1010.4
2023-02-27T10:56:03.422Z,1010.4
2023-02-27T10:57:21.082Z,1010.4
2023-02-27T10:58:38.102Z,1010.4
2023-02-27T10:59:55.226Z,1010.4
2023-02-27T11:01:12.154Z,1010.4
2023-02-27T11:02:29.153Z,1010.4
2023-02-27T11:03:46.107Z,1010.3
2023-02-27T11:05:03.111Z,1010.3
2023-02-27T11:06:20.099Z,1010.3
2023-02-27T11:07:37.068Z,1010.3
2023-02-27T11:08:54.118Z,1010.1
2023-02-27T11:10:11.168Z,1010.3
2023-02-27T11:11:30.016Z,1010.2
2023-02-27T11:12:47.161Z,1010.2
2023-02-27T11:14:04.284Z,1010.2
2023-02-27T11:15:21.126Z,1010.2
2023-02-27T11:16:38.124Z,1010.2
2023-02-27T11:17:55.254Z,1010.2
2023-02-27T11:19:14.088Z,1010.2
2023-02-27T11:20:29.149Z,1010.2
2023-02-27T11:21:46.137Z,1010.2
2023-02-27T11:23:03.202Z,1010.2
2023-02-27T11:24:20.331Z,1010.2
2023-02-27T11:25:37.102Z,1010.1
2023-02-27T11:26:54.144Z,1010
2023-02-27T11:28:11.181Z,1010.1
2023-02-27T11:29:28.135Z,1010.2
2023-02-27T11:30:45.186Z,1010.2
2023-02-27T11:32:02.192Z,1010.2
2023-02-27T11:33:19.282Z,1010.2
2023-02-27T11:34:36.312Z,1010.2
2023-02-27T11:35:56.917Z,1010.2
2023-02-27T11:37:10.412Z,1010.2
2023-02-27T11:38:27.134Z,1010.2
2023-02-27T11:39:44.676Z,1010.2
2023-02-27T11:41:01.143Z,1010.2
2023-02-27T11:42:18.176Z,1010.3
2023-02-27T11:43:35.162Z,1010.2
2023-02-27T11:44:52.222Z,1010.3
2023-02-27T11:46:23.079Z,1010.2
2023-02-27T11:47:26.210Z,1010.2
2023-02-27T11:48:43.240Z,1010.2
2023-02-27T11:50:00.265Z,1010.2
2023-02-27T11:51:17.150Z,1010.2
2023-02-27T11:52:34.530Z,1010.2
2023-02-27T11:53:52.172Z,1010.2
2023-02-27T11:55:09.177Z,1010.2
2023-02-27T11:56:26.154Z,1010.2
2023-02-27T11:57:43.150Z,1010.2
2023-02-27T11:59:03.463Z,1010.2
2023-02-27T12:00:20.192Z,1010.2
2023-02-27T12:01:37.174Z,1010.2
2023-02-27T12:02:54.681Z,1010.2
2023-02-27T12:04:11.280Z,1010.2
2023-02-27T12:05:28.171Z,1010.2
2023-02-27T12:06:45.172Z,1010.2
2023-02-27T12:08:02.194Z,1010.1
2023-02-27T12:09:19.540Z,1010.2
2023-02-27T12:10:36.158Z,1010.2
2023-02-27T12:11:53.177Z,1010.3
2023-02-27T12:13:10.170Z,1010.3
2023-02-27T12:14:27.253Z,1010.3
2023-02-27T12:15:44.216Z,1010.3
2023-02-27T12:17:01.187Z,1010.3
2023-02-27T12:18:18.186Z,1010.2
2023-02-27T12:19:35.264Z,1010.2
2023-02-27T12:20:52.215Z,1010.2
2023-02-27T12:22:09.198Z,1010.2
2023-02-27T12:23:26.204Z,1010.3
2023-02-27T12:24:43.225Z,1010.3
2023-02-27T12:26:00.197Z,1010.3
2023-02-27T12:27:17.302Z,1010.3
2023-02-27T12:28:34.362Z,1010.3
2023-02-27T12:29:51.206Z,1010.3
2023-02-27T12:31:08.265Z,1010.3
2023-02-27T12:32:25.558Z,1010.3
2023-02-27T12:33:42.209Z,1010.3
2023-02-27T12:34:59.289Z,1010.3
2023-02-27T12:36:16.189Z,1010.3
2023-02-27T12:37:33.227Z,1010.3
2023-02-27T12:38:50.190Z,1010.3
2023-02-27T12:40:08.244Z,1010.3
2023-02-27T12:41:25.286Z,1010.3
2023-02-27T12:42:42.223Z,1010.3
2023-02-27T12:43:59.208Z,1010.4
2023-02-27T12:45:16.244Z,1010.3
2023-02-27T12:46:33.241Z,1010.4
2023-02-27T12:47:50.260Z,1010.4
2023-02-27T12:49:07.591Z,1010.4
2023-02-27T12:50:24.354Z,1010.4
2023-02-27T12:51:41.234Z,1010.4
2023-02-27T12:52:58.204Z,1010.4
2023-02-27T12:54:15.205Z,1010.4
2023-02-27T12:55:32.277Z,1010.4
2023-02-27T12:56:49.220Z,1010.4
2023-02-27T12:58:06.271Z,1010.3
2023-02-27T12:59:24.235Z,1010.4
2023-02-27T13:00:40.282Z,1010.4
2023-02-27T13:01:57.250Z,1010.4
2023-02-27T13:03:14.255Z,1010.4
2023-02-27T13:04:31.223Z,1010.4
2023-02-27T13:05:48.270Z,1010.4
2023-02-27T13:07:05.227Z,1010.4
2023-02-27T13:08:22.283Z,1010.4
2023-02-27T13:09:39.242Z,1010.5
2023-02-27T13:10:56.288Z,1010.5
2023-02-27T13:12:13.297Z,1010.5
2023-02-27T13:13:30.244Z,1010.5
2023-02-27T13:14:47.250Z,1010.5
2023-02-27T13:16:04.266Z,1010.5
2023-02-27T13:17:21.283Z,1010.5
2023-02-27T13:18:38.277Z,1010.5
2023-02-27T13:19:55.259Z,1010.5
2023-02-27T13:21:12.317Z,1010.5
2023-02-27T13:22:29.279Z,1010.5
2023-02-27T13:23:46.312Z,1010.5
2023-02-27T13:25:03.276Z,1010.5
2023-02-27T13:26:20.329Z,1010.5
2023-02-27T13:27:37.309Z,1010.5
2023-02-27T13:28:54.283Z,1010.4
2023-02-27T13:30:11.426Z,1010.4
2023-02-27T13:31:28.570Z,1010.4
2023-02-27T13:32:45.440Z,1010.4
2023-02-27T13:34:02.307Z,1010.5
2023-02-27T13:35:19.268Z,1010.5
2023-02-27T13:36:36.306Z,1010.5
2023-02-27T13:37:53.358Z,1010.5
2023-02-27T13:39:10.287Z,1010.5
2023-02-27T13:40:27.292Z,1010.5
2023-02-27T13:41:44.329Z,1010.5
2023-02-27T13:43:01.328Z,1010.5
2023-02-27T13:44:18.391Z,1010.6
2023-02-27T13:45:35.329Z,1010.6
2023-02-27T13:46:52.305Z,1010.6
2023-02-27T13:48:09.290Z,1010.6
2023-02-27T13:49:29.426Z,1010.6
2023-02-27T13:50:43.356Z,1010.5
2023-02-27T13:52:00.342Z,1010.6
2023-02-27T13:53:17.318Z,1010.6
2023-02-27T13:54:34.322Z,1010.6
2023-02-27T13:55:51.298Z,1010.7
2023-02-27T13:57:08.295Z,1010.6
2023-02-27T13:58:25.313Z,1010.7
2023-02-27T13:59:42.376Z,1010.6
2023-02-27T14:00:59.366Z,1010.6
2023-02-27T14:02:16.325Z,1010.6
2023-02-27T14:03:33.301Z,1010.7
2023-02-27T14:04:50.350Z,1010.7
2023-02-27T14:06:07.378Z,1010.7
2023-02-27T14:07:24.372Z,1010.7
2023-02-27T14:08:41.317Z,1010.8
2023-02-27T14:09:58.432Z,1010.8
2023-02-27T14:11:15.312Z,1010.8
2023-02-27T14:12:43.898Z,1010.8
2023-02-27T14:13:49.334Z,1010.8
2023-02-27T14:15:06.367Z,1010.8
2023-02-27T14:16:23.384Z,1010.8
2023-02-27T14:17:40.371Z,1010.7
2023-02-27T14:18:57.332Z,1010.8
2023-02-27T14:20:14.328Z,1010.8
2023-02-27T14:21:31.337Z,1010.8
2023-02-27T14:22:48.392Z,1010.8
2023-02-27T14:24:05.353Z,1010.8
2023-02-27T14:25:22.373Z,1010.9
2023-02-27T14:26:39.365Z,1010.9
2023-02-27T14:27:59.392Z,1010.9
2023-02-27T14:29:23.388Z,1010.9
2023-02-27T14:30:40.414Z,1010.8
2023-02-27T14:31:57.336Z,1010.9
2023-02-27T14:33:14.370Z,1010.9
2023-02-27T14:34:31.460Z,1010.9
2023-02-27T14:35:48.434Z,1010.9
2023-02-27T14:37:05.361Z,1010.8
2023-02-27T14:38:22.650Z,1010.9
2023-02-27T14:39:39.663Z,1010.9
2023-02-27T14:40:56.379Z,1010.9
2023-02-27T14:42:13.517Z,1010.9
2023-02-27T14:43:30.396Z,1010.9
2023-02-27T14:44:47.437Z,1010.9
2023-02-27T14:46:04.419Z,1010.9
2023-02-27T14:47:21.369Z,1010.9
2023-02-27T14:48:38.556Z,1010.9
2023-02-27T14:49:55.578Z,1010.9
2023-02-27T14:51:12.405Z,1011
2023-02-27T14:52:29.533Z,1010.9
2023-02-27T14:53:46.416Z,1010.9
2023-02-27T14:55:03.520Z,1010.9
2023-02-27T14:56:20.406Z,1011
2023-02-27T14:57:37.409Z,1011
2023-02-27T14:59:03.534Z,1011
2023-02-27T15:00:11.476Z,1011
2023-02-27T15:01:28.815Z,1011.1
2023-02-27T15:02:45.395Z,1011.2
2023-02-27T15:04:02.564Z,1011.1
2023-02-27T15:05:19.423Z,1011.1
2023-02-27T15:06:36.390Z,1011.1
2023-02-27T15:07:53.426Z,1011.1
2023-02-27T15:09:10.450Z,1011.1
2023-02-27T15:10:27.421Z,1011.2
2023-02-27T15:11:48.834Z,1011.2
2023-02-27T15:13:01.416Z,1011.3
2023-02-27T15:14:18.447Z,1011.3
2023-02-27T15:15:35.425Z,1011.3
2023-02-27T15:16:54.644Z,1011.3
2023-02-27T15:18:09.435Z,1011.3
2023-02-27T15:19:26.478Z,1011.3
2023-02-27T15:20:43.438Z,1011.4
2023-02-27T15:22:00.510Z,1011.4
2023-02-27T15:23:17.628Z,1011.4
2023-02-27T15:24:47.732Z,1011.4
2023-02-27T15:25:51.489Z,1011.3
2023-02-27T15:27:08.427Z,1011.4
2023-02-27T15:28:25.497Z,1011.4
2023-02-27T15:29:42.559Z,1011.5
2023-02-27T15:30:59.511Z,1011.5
2023-02-27T15:32:16.483Z,1011.5
2023-02-27T15:33:33.563Z,1011.5
2023-02-27T15:34:50.435Z,1011.5
2023-02-27T15:36:07.466Z,1011.4
2023-02-27T15:37:25.177Z,1011.4
2023-02-27T15:38:42.446Z,1011.5
2023-02-27T15:39:59.511Z,1011.5
2023-02-27T15:41:16.487Z,1011.5
2023-02-27T15:42:33.555Z,1011.5
2023-02-27T15:43:50.460Z,1011.5
2023-02-27T15:45:07.499Z,1011.6
2023-02-27T15:46:24.849Z,1011.6
2023-02-27T15:47:43.894Z,1011.5
2023-02-27T15:48:58.445Z,1011.6
2023-02-27T15:50:15.447Z,1011.6
2023-02-27T15:51:32.506Z,1011.6
2023-02-27T15:52:49.444Z,1011.7
2023-02-27T15:54:06.839Z,1011.7
2023-02-27T15:55:23.510Z,1011.7
2023-02-27T15:56:40.492Z,1011.7
2023-02-27T15:58:03.000Z,1011.7
2023-02-27T15:59:14.549Z,1011.7
2023-02-27T16:00:31.475Z,1011.7
2023-02-27T16:01:48.489Z,1011.7
2023-02-27T16:03:05.558Z,1011.7
2023-02-27T16:04:22.464Z,1011.8
2023-02-27T16:05:39.483Z,1011.8